sensor_id;sensor_type;location;lat;lon;timestamp;pressure;altitude;pressure_sealevel;temperature;humidity
85524;BME280;75932;48.616;9.270;2024-03-06T00:01:31;98480.59;;;4.52;94.69
85524;BME280;75932;48.616;9.270;2024-03-06T00:03:57;98488.69;;;4.48;94.59
85524;BME280;75932;48.616;9.270;2024-03-06T00:06:22;98482.69;;;4.46;94.43
85524;BME280;75932;48.616;9.270;2024-03-06T00:08:49;98495.34;;;4.56;94.91
85524;BME280;75932;48.616;9.270;2024-03-06T00:11:14;98493.88;;;4.50;94.86
85524;BME280;75932;48.616;9.270;2024-03-06T00:13:40;98473.75;;;4.41;94.92
85524;BME280;75932;48.616;9.270;2024-03-06T00:16:05;98476.53;;;4.49;95.03
85524;BME280;75932;48.616;9.270;2024-03-06T00:18:31;98497.13;;;4.52;95.11
85524;BME280;75932;48.616;9.270;2024-03-06T00:20:56;98501.69;;;4.57;94.80
85524;BME280;75932;48.616;9.270;2024-03-06T00:23:21;98466.47;;;4.45;95.00
85524;BME280;75932;48.616;9.270;2024-03-06T00:25:47;98496.66;;;4.59;94.93
85524;BME280;75932;48.616;9.270;2024-03-06T00:28:12;98496.00;;;4.62;94.64
85524;BME280;75932;48.616;9.270;2024-03-06T00:30:37;98499.41;;;4.59;94.10
85524;BME280;75932;48.616;9.270;2024-03-06T00:33:02;98493.91;;;4.59;94.24
85524;BME280;75932;48.616;9.270;2024-03-06T00:35:28;98484.47;;;4.51;93.66
85524;BME280;75932;48.616;9.270;2024-03-06T00:37:54;98498.75;;;4.44;92.81
85524;BME280;75932;48.616;9.270;2024-03-06T00:40:19;98489.97;;;4.34;93.21
85524;BME280;75932;48.616;9.270;2024-03-06T00:42:45;98495.97;;;4.36;93.06
85524;BME280;75932;48.616;9.270;2024-03-06T00:45:11;98504.72;;;4.38;93.53
85524;BME280;75932;48.616;9.270;2024-03-06T00:47:36;98496.28;;;4.34;93.37
85524;BME280;75932;48.616;9.270;2024-03-06T00:50:02;98491.25;;;4.36;93.90
85524;BME280;75932;48.616;9.270;2024-03-06T00:52:28;98492.84;;;4.28;94.72
85524;BME280;75932;48.616;9.270;2024-03-06T00:54:53;98505.84;;;4.37;94.42
85524;BME280;75932;48.616;9.270;2024-03-06T00:57:18;98504.22;;;4.36;94.57
85524;BME280;75932;48.616;9.270;2024-03-06T00:59:44;98483.25;;;4.17;94.55
85524;BME280;75932;48.616;9.270;2024-03-06T01:02:09;98504.03;;;4.32;94.77
85524;BME280;75932;48.616;9.270;2024-03-06T01:04:34;98495.09;;;4.26;95.21
85524;BME280;75932;48.616;9.270;2024-03-06T01:07:00;98495.44;;;4.25;95.07
85524;BME280;75932;48.616;9.270;2024-03-06T01:09:25;98500.13;;;4.24;95.04
85524;BME280;75932;48.616;9.270;2024-03-06T01:11:52;98499.97;;;4.21;95.19
85524;BME280;75932;48.616;9.270;2024-03-06T01:14:19;98498.66;;;4.18;95.50
85524;BME280;75932;48.616;9.270;2024-03-06T01:16:45;98497.34;;;4.16;95.32
85524;BME280;75932;48.616;9.270;2024-03-06T01:19:10;98488.59;;;4.14;95.36
85524;BME280;75932;48.616;9.270;2024-03-06T01:21:35;98457.22;;;3.83;95.66
85524;BME280;75932;48.616;9.270;2024-03-06T01:24:01;98493.94;;;4.10;95.08
85524;BME280;75932;48.616;9.270;2024-03-06T01:26:26;98500.41;;;4.05;95.84
85524;BME280;75932;48.616;9.270;2024-03-06T01:28:54;98485.97;;;4.00;95.85
85524;BME280;75932;48.616;9.270;2024-03-06T01:31:19;98501.69;;;3.99;95.51
85524;BME280;75932;48.616;9.270;2024-03-06T01:33:44;98478.25;;;3.79;95.74
85524;BME280;75932;48.616;9.270;2024-03-06T01:36:10;98497.91;;;3.86;95.36
85524;BME280;75932;48.616;9.270;2024-03-06T01:38:35;98445.94;;;3.54;95.91
85524;BME280;75932;48.616;9.270;2024-03-06T01:41:00;98496.44;;;3.89;95.77
85524;BME280;75932;48.616;9.270;2024-03-06T01:43:26;98461.84;;;3.65;96.13
85524;BME280;75932;48.616;9.270;2024-03-06T01:45:51;98493.03;;;3.92;95.20
85524;BME280;75932;48.616;9.270;2024-03-06T01:48:20;98506.28;;;3.81;94.87
85524;BME280;75932;48.616;9.270;2024-03-06T01:50:46;98504.31;;;3.82;95.46
85524;BME280;75932;48.616;9.270;2024-03-06T01:53:13;98507.75;;;3.87;94.78
85524;BME280;75932;48.616;9.270;2024-03-06T01:55:41;98508.59;;;3.97;94.95
85524;BME280;75932;48.616;9.270;2024-03-06T01:58:06;98510.72;;;3.91;94.85
85524;BME280;75932;48.616;9.270;2024-03-06T02:00:33;98508.75;;;3.92;95.47
85524;BME280;75932;48.616;9.270;2024-03-06T02:02:59;98508.41;;;3.84;94.86
85524;BME280;75932;48.616;9.270;2024-03-06T02:05:24;98465.06;;;3.59;95.64
85524;BME280;75932;48.616;9.270;2024-03-06T02:07:50;98508.56;;;3.88;95.11
85524;BME280;75932;48.616;9.270;2024-03-06T02:10:17;98504.50;;;3.85;95.20
85524;BME280;75932;48.616;9.270;2024-03-06T02:12:43;98508.91;;;3.86;94.93
85524;BME280;75932;48.616;9.270;2024-03-06T02:15:10;98493.81;;;3.84;94.97
85524;BME280;75932;48.616;9.270;2024-03-06T02:17:37;98498.97;;;3.77;95.16
85524;BME280;75932;48.616;9.270;2024-03-06T02:20:03;98487.78;;;3.73;95.26
85524;BME280;75932;48.616;9.270;2024-03-06T02:22:31;98492.34;;;3.78;95.55
85524;BME280;75932;48.616;9.270;2024-03-06T02:24:57;98505.47;;;3.81;95.27
85524;BME280;75932;48.616;9.270;2024-03-06T02:27:22;98493.16;;;3.78;95.64
85524;BME280;75932;48.616;9.270;2024-03-06T02:29:48;98495.75;;;3.83;95.95
85524;BME280;75932;48.616;9.270;2024-03-06T02:32:13;98476.59;;;3.70;94.99
85524;BME280;75932;48.616;9.270;2024-03-06T02:34:43;98508.41;;;3.84;95.01
85524;BME280;75932;48.616;9.270;2024-03-06T02:37:08;98499.47;;;3.79;94.69
85524;BME280;75932;48.616;9.270;2024-03-06T02:39:34;98506.91;;;3.78;95.15
85524;BME280;75932;48.616;9.270;2024-03-06T02:42:01;98510.16;;;3.80;94.82
85524;BME280;75932;48.616;9.270;2024-03-06T02:44:26;98513.41;;;3.82;95.32
85524;BME280;75932;48.616;9.270;2024-03-06T02:46:52;98506.13;;;3.78;94.49
85524;BME280;75932;48.616;9.270;2024-03-06T02:49:17;98464.88;;;3.55;94.88
85524;BME280;75932;48.616;9.270;2024-03-06T02:51:43;98512.97;;;3.89;94.55
85524;BME280;75932;48.616;9.270;2024-03-06T02:54:09;98516.53;;;3.89;95.10
85524;BME280;75932;48.616;9.270;2024-03-06T02:56:34;98484.72;;;3.75;94.94
85524;BME280;75932;48.616;9.270;2024-03-06T02:59:00;98517.00;;;3.92;95.06
85524;BME280;75932;48.616;9.270;2024-03-06T03:01:28;98516.22;;;3.91;95.20
85524;BME280;75932;48.616;9.270;2024-03-06T03:03:53;98494.28;;;3.77;95.09
85524;BME280;75932;48.616;9.270;2024-03-06T03:06:19;98516.34;;;3.86;95.06
85524;BME280;75932;48.616;9.270;2024-03-06T03:08:44;98457.75;;;3.54;94.95
85524;BME280;75932;48.616;9.270;2024-03-06T03:11:09;98492.34;;;3.78;95.45
85524;BME280;75932;48.616;9.270;2024-03-06T03:13:35;98516.72;;;3.93;95.30
85524;BME280;75932;48.616;9.270;2024-03-06T03:16:00;98522.22;;;3.93;95.43
85524;BME280;75932;48.616;9.270;2024-03-06T03:18:27;98513.31;;;3.96;95.30
85524;BME280;75932;48.616;9.270;2024-03-06T03:20:53;98512.69;;;3.99;95.20
85524;BME280;75932;48.616;9.270;2024-03-06T03:23:18;98520.13;;;3.99;95.42
85524;BME280;75932;48.616;9.270;2024-03-06T03:25:47;98511.34;;;3.97;94.64
85524;BME280;75932;48.616;9.270;2024-03-06T03:28:13;98515.94;;;4.01;95.29
85524;BME280;75932;48.616;9.270;2024-03-06T03:30:38;98513.16;;;3.93;94.96
85524;BME280;75932;48.616;9.270;2024-03-06T03:33:04;98529.22;;;3.99;95.19
85524;BME280;75932;48.616;9.270;2024-03-06T03:35:29;98527.06;;;3.96;95.16
85524;BME280;75932;48.616;9.270;2024-03-06T03:37:56;98533.06;;;3.98;95.18
85524;BME280;75932;48.616;9.270;2024-03-06T03:40:22;98518.16;;;3.91;94.88
85524;BME280;75932;48.616;9.270;2024-03-06T03:42:48;98530.31;;;3.98;95.28
85524;BME280;75932;48.616;9.270;2024-03-06T03:45:13;98503.03;;;3.79;95.25
85524;BME280;75932;48.616;9.270;2024-03-06T03:47:40;98510.97;;;3.81;95.19
85524;BME280;75932;48.616;9.270;2024-03-06T03:50:05;98524.00;;;3.98;94.91
85524;BME280;75932;48.616;9.270;2024-03-06T03:52:31;98533.88;;;3.99;94.92
85524;BME280;75932;48.616;9.270;2024-03-06T03:54:56;98529.31;;;3.94;95.03
85524;BME280;75932;48.616;9.270;2024-03-06T03:57:22;98534.22;;;3.97;95.59
85524;BME280;75932;48.616;9.270;2024-03-06T03:59:47;98536.31;;;4.00;95.37
85524;BME280;75932;48.616;9.270;2024-03-06T04:02:12;98532.06;;;3.94;94.94
85524;BME280;75932;48.616;9.270;2024-03-06T04:04:38;98536.78;;;3.94;94.92
85524;BME280;75932;48.616;9.270;2024-03-06T04:07:03;98537.59;;;3.94;94.87
85524;BME280;75932;48.616;9.270;2024-03-06T04:09:28;98540.69;;;3.93;95.08
85524;BME280;75932;48.616;9.270;2024-03-06T04:11:56;98541.63;;;3.97;95.50
85524;BME280;75932;48.616;9.270;2024-03-06T04:14:22;98541.63;;;3.97;95.23
85524;BME280;75932;48.616;9.270;2024-03-06T04:16:47;98527.34;;;3.86;94.41
85524;BME280;75932;48.616;9.270;2024-03-06T04:19:12;98549.59;;;3.98;94.81
85524;BME280;75932;48.616;9.270;2024-03-06T04:21:41;98547.47;;;3.95;95.15
85524;BME280;75932;48.616;9.270;2024-03-06T04:24:07;98551.38;;;4.03;94.67
85524;BME280;75932;48.616;9.270;2024-03-06T04:26:33;98560.47;;;4.03;94.46
85524;BME280;75932;48.616;9.270;2024-03-06T04:28:58;98557.53;;;4.00;94.98
85524;BME280;75932;48.616;9.270;2024-03-06T04:31:23;98554.28;;;3.98;94.83
85524;BME280;75932;48.616;9.270;2024-03-06T04:33:48;98549.69;;;3.84;95.26
85524;BME280;75932;48.616;9.270;2024-03-06T04:36:14;98566.00;;;4.03;95.18
85524;BME280;75932;48.616;9.270;2024-03-06T04:38:39;98568.41;;;4.05;95.17
85524;BME280;75932;48.616;9.270;2024-03-06T04:41:08;98570.34;;;4.04;95.32
85524;BME280;75932;48.616;9.270;2024-03-06T04:43:33;98575.56;;;4.06;95.23
85524;BME280;75932;48.616;9.270;2024-03-06T04:45:58;98581.38;;;4.04;95.61
85524;BME280;75932;48.616;9.270;2024-03-06T04:48:24;98577.16;;;4.07;95.65
85524;BME280;75932;48.616;9.270;2024-03-06T04:50:49;98576.53;;;4.10;95.11
85524;BME280;75932;48.616;9.270;2024-03-06T04:53:15;98577.84;;;4.13;95.00
85524;BME280;75932;48.616;9.270;2024-03-06T04:55:40;98582.06;;;4.10;95.36
85524;BME280;75932;48.616;9.270;2024-03-06T04:58:06;98577.66;;;4.09;95.56
85524;BME280;75932;48.616;9.270;2024-03-06T05:00:34;98591.66;;;4.21;95.05
85524;BME280;75932;48.616;9.270;2024-03-06T05:02:59;98588.72;;;4.18;94.91
85524;BME280;75932;48.616;9.270;2024-03-06T05:05:25;98588.22;;;4.16;95.16
85524;BME280;75932;48.616;9.270;2024-03-06T05:07:50;98589.66;;;4.13;95.39
85524;BME280;75932;48.616;9.270;2024-03-06T05:10:16;98592.13;;;4.15;95.44
85524;BME280;75932;48.616;9.270;2024-03-06T05:12:42;98593.41;;;4.17;95.23
85524;BME280;75932;48.616;9.270;2024-03-06T05:15:08;98588.22;;;4.16;95.55
85524;BME280;75932;48.616;9.270;2024-03-06T05:17:33;98551.50;;;3.89;95.36
85524;BME280;75932;48.616;9.270;2024-03-06T05:19:59;98600.19;;;4.11;94.81
85524;BME280;75932;48.616;9.270;2024-03-06T05:22:24;98594.88;;;4.15;95.35
85524;BME280;75932;48.616;9.270;2024-03-06T05:24:51;98599.88;;;4.13;95.13
85524;BME280;75932;48.616;9.270;2024-03-06T05:27:17;98602.44;;;4.09;95.19
85524;BME280;75932;48.616;9.270;2024-03-06T05:29:43;98601.81;;;4.12;95.26
85524;BME280;75932;48.616;9.270;2024-03-06T05:32:09;98609.44;;;4.15;95.14
85524;BME280;75932;48.616;9.270;2024-03-06T05:34:34;98605.56;;;4.16;95.05
85524;BME280;75932;48.616;9.270;2024-03-06T05:37:00;98594.38;;;4.13;95.31
85524;BME280;75932;48.616;9.270;2024-03-06T05:39:26;98607.19;;;4.17;95.19
85524;BME280;75932;48.616;9.270;2024-03-06T05:41:54;98610.25;;;4.16;95.06
85524;BME280;75932;48.616;9.270;2024-03-06T05:44:20;98601.63;;;4.08;95.86
85524;BME280;75932;48.616;9.270;2024-03-06T05:46:46;98608.81;;;4.18;95.74
85524;BME280;75932;48.616;9.270;2024-03-06T05:49:12;98618.22;;;4.17;95.39
85524;BME280;75932;48.616;9.270;2024-03-06T05:51:37;98620.31;;;4.20;95.45
85524;BME280;75932;48.616;9.270;2024-03-06T05:54:03;98620.66;;;4.19;95.17
85524;BME280;75932;48.616;9.270;2024-03-06T05:56:29;98615.75;;;4.16;95.44
85524;BME280;75932;48.616;9.270;2024-03-06T05:58:55;98632.56;;;4.37;95.53
85524;BME280;75932;48.616;9.270;2024-03-06T06:01:20;98628.50;;;4.34;95.14
85524;BME280;75932;48.616;9.270;2024-03-06T06:03:52;98633.56;;;4.41;94.70
85524;BME280;75932;48.616;9.270;2024-03-06T06:06:18;98564.63;;;3.92;94.17
85524;BME280;75932;48.616;9.270;2024-03-06T06:08:45;98644.72;;;4.36;94.88
85524;BME280;75932;48.616;9.270;2024-03-06T06:11:11;98646.81;;;4.39;95.18
85524;BME280;75932;48.616;9.270;2024-03-06T06:13:37;98641.13;;;4.35;94.49
85524;BME280;75932;48.616;9.270;2024-03-06T06:16:04;98650.06;;;4.41;95.19
85524;BME280;75932;48.616;9.270;2024-03-06T06:18:30;98631.72;;;4.27;95.25
85524;BME280;75932;48.616;9.270;2024-03-06T06:20:56;98632.81;;;4.26;95.41
85524;BME280;75932;48.616;9.270;2024-03-06T06:23:22;98656.72;;;4.40;95.85
85524;BME280;75932;48.616;9.270;2024-03-06T06:25:47;98660.34;;;4.49;95.38
85524;BME280;75932;48.616;9.270;2024-03-06T06:28:12;98666.66;;;4.49;94.82
85524;BME280;75932;48.616;9.270;2024-03-06T06:30:38;98601.00;;;4.12;94.88
85524;BME280;75932;48.616;9.270;2024-03-06T06:33:04;98676.09;;;4.57;94.52
85524;BME280;75932;48.616;9.270;2024-03-06T06:35:29;98673.34;;;4.57;94.01
85524;BME280;75932;48.616;9.270;2024-03-06T06:37:55;98675.91;;;4.54;94.17
85524;BME280;75932;48.616;9.270;2024-03-06T06:40:22;98674.75;;;4.46;94.02
85524;BME280;75932;48.616;9.270;2024-03-06T06:42:49;98676.03;;;4.40;94.58
85524;BME280;75932;48.616;9.270;2024-03-06T06:45:18;98674.53;;;4.34;94.79
85524;BME280;75932;48.616;9.270;2024-03-06T06:47:44;98685.69;;;4.37;95.03
85524;BME280;75932;48.616;9.270;2024-03-06T06:50:10;98676.03;;;4.40;94.83
85524;BME280;75932;48.616;9.270;2024-03-06T06:52:37;98674.06;;;4.40;94.86
85524;BME280;75932;48.616;9.270;2024-03-06T06:55:02;98672.63;;;4.43;95.55
85524;BME280;75932;48.616;9.270;2024-03-06T06:57:28;98674.28;;;4.53;95.66
85524;BME280;75932;48.616;9.270;2024-03-06T06:59:53;98681.91;;;4.56;95.42
85524;BME280;75932;48.616;9.270;2024-03-06T07:02:18;98674.78;;;4.55;94.99
85524;BME280;75932;48.616;9.270;2024-03-06T07:04:44;98679.66;;;4.58;94.85
85524;BME280;75932;48.616;9.270;2024-03-06T07:07:09;98685.47;;;4.56;94.40
85524;BME280;75932;48.616;9.270;2024-03-06T07:09:35;98689.69;;;4.54;94.84
85524;BME280;75932;48.616;9.270;2024-03-06T07:12:00;98690.34;;;4.50;95.10
85524;BME280;75932;48.616;9.270;2024-03-06T07:14:25;98690.19;;;4.56;95.22
85524;BME280;75932;48.616;9.270;2024-03-06T07:16:51;98689.06;;;4.57;95.40
85524;BME280;75932;48.616;9.270;2024-03-06T07:19:18;98686.47;;;4.60;95.19
85524;BME280;75932;48.616;9.270;2024-03-06T07:21:46;98695.13;;;4.67;95.02
85524;BME280;75932;48.616;9.270;2024-03-06T07:24:11;98685.88;;;4.72;95.34
85524;BME280;75932;48.616;9.270;2024-03-06T07:26:36;98688.81;;;4.76;95.11
85524;BME280;75932;48.616;9.270;2024-03-06T07:29:02;98704.91;;;4.82;94.99
85524;BME280;75932;48.616;9.270;2024-03-06T07:31:28;98699.56;;;4.86;95.39
85524;BME280;75932;48.616;9.270;2024-03-06T07:33:53;98695.84;;;4.90;95.38
85524;BME280;75932;48.616;9.270;2024-03-06T07:36:21;98698.47;;;4.96;95.16
85524;BME280;75932;48.616;9.270;2024-03-06T07:38:50;98715.16;;;4.99;94.76
85524;BME280;75932;48.616;9.270;2024-03-06T07:41:15;98713.88;;;4.97;94.12
85524;BME280;75932;48.616;9.270;2024-03-06T07:43:40;98715.66;;;5.01;93.69
85524;BME280;75932;48.616;9.270;2024-03-06T07:46:06;98711.78;;;5.02;94.00
85524;BME280;75932;48.616;9.270;2024-03-06T07:48:41;98715.03;;;5.04;93.90
85524;BME280;75932;48.616;9.270;2024-03-06T07:51:07;98715.72;;;5.10;94.39
85524;BME280;75932;48.616;9.270;2024-03-06T07:53:32;98712.97;;;5.10;94.51
85524;BME280;75932;48.616;9.270;2024-03-06T07:55:57;98718.50;;;5.19;94.60
85524;BME280;75932;48.616;9.270;2024-03-06T07:58:23;98717.53;;;5.23;94.90
85524;BME280;75932;48.616;9.270;2024-03-06T08:00:48;98716.88;;;5.26;94.43
85524;BME280;75932;48.616;9.270;2024-03-06T08:03:13;98720.63;;;5.39;92.98
85524;BME280;75932;48.616;9.270;2024-03-06T08:05:39;98723.91;;;5.50;93.39
85524;BME280;75932;48.616;9.270;2024-03-06T08:08:04;98719.38;;;5.63;93.07
85524;BME280;75932;48.616;9.270;2024-03-06T08:10:30;98729.63;;;5.71;92.49
85524;BME280;75932;48.616;9.270;2024-03-06T08:12:56;98731.09;;;5.68;91.70
85524;BME280;75932;48.616;9.270;2024-03-06T08:15:21;98740.97;;;5.69;93.24
85524;BME280;75932;48.616;9.270;2024-03-06T08:17:48;98725.84;;;5.49;92.58
85524;BME280;75932;48.616;9.270;2024-03-06T08:20:14;98738.06;;;5.66;92.58
85524;BME280;75932;48.616;9.270;2024-03-06T08:22:41;98730.13;;;5.73;92.28
85524;BME280;75932;48.616;9.270;2024-03-06T08:25:12;98734.16;;;5.76;93.43
85524;BME280;75932;48.616;9.270;2024-03-06T08:27:40;98732.56;;;5.75;92.42
85524;BME280;75932;48.616;9.270;2024-03-06T08:30:06;98737.75;;;5.76;90.06
85524;BME280;75932;48.616;9.270;2024-03-06T08:32:33;98736.44;;;5.82;89.69
85524;BME280;75932;48.616;9.270;2024-03-06T08:35:06;98738.88;;;5.84;88.65
85524;BME280;75932;48.616;9.270;2024-03-06T08:37:34;98742.63;;;5.88;90.17
85524;BME280;75932;48.616;9.270;2024-03-06T08:40:00;98739.91;;;5.97;88.95
85524;BME280;75932;48.616;9.270;2024-03-06T08:42:25;98708.69;;;5.79;88.99
85524;BME280;75932;48.616;9.270;2024-03-06T08:44:51;98736.34;;;6.05;89.45
85524;BME280;75932;48.616;9.270;2024-03-06T08:47:16;98739.59;;;6.07;89.09
85524;BME280;75932;48.616;9.270;2024-03-06T08:49:42;98740.56;;;6.20;88.35
85524;BME280;75932;48.616;9.270;2024-03-06T08:52:07;98743.13;;;6.33;87.75
85524;BME280;75932;48.616;9.270;2024-03-06T08:54:34;98740.06;;;6.26;87.72
85524;BME280;75932;48.616;9.270;2024-03-06T08:57:00;98746.84;;;6.38;88.15
85524;BME280;75932;48.616;9.270;2024-03-06T08:59:25;98743.28;;;6.46;88.87
85524;BME280;75932;48.616;9.270;2024-03-06T09:01:54;98734.47;;;6.52;87.80
85524;BME280;75932;48.616;9.270;2024-03-06T09:04:20;98745.38;;;6.58;88.32
85524;BME280;75932;48.616;9.270;2024-03-06T09:06:45;98756.75;;;6.56;87.36
85524;BME280;75932;48.616;9.270;2024-03-06T09:09:10;98754.47;;;6.58;88.18
85524;BME280;75932;48.616;9.270;2024-03-06T09:11:36;98747.19;;;6.45;86.45
85524;BME280;75932;48.616;9.270;2024-03-06T09:14:01;98764.25;;;6.47;86.05
85524;BME280;75932;48.616;9.270;2024-03-06T09:16:26;98757.09;;;6.46;86.74
85524;BME280;75932;48.616;9.270;2024-03-06T09:18:52;98763.63;;;6.32;86.83
85524;BME280;75932;48.616;9.270;2024-03-06T09:21:18;98763.16;;;6.22;87.16
85524;BME280;75932;48.616;9.270;2024-03-06T09:23:45;98763.31;;;6.25;87.32
85524;BME280;75932;48.616;9.270;2024-03-06T09:26:10;98765.59;;;6.32;88.07
85524;BME280;75932;48.616;9.270;2024-03-06T09:28:35;98765.59;;;6.32;86.57
85524;BME280;75932;48.616;9.270;2024-03-06T09:31:00;98771.59;;;6.34;87.53
85524;BME280;75932;48.616;9.270;2024-03-06T09:33:26;98770.13;;;6.28;86.46
85524;BME280;75932;48.616;9.270;2024-03-06T09:35:51;98772.22;;;6.31;88.42
85524;BME280;75932;48.616;9.270;2024-03-06T09:38:16;98788.81;;;6.22;86.66
85524;BME280;75932;48.616;9.270;2024-03-06T09:40:42;98779.72;;;6.22;88.08
85524;BME280;75932;48.616;9.270;2024-03-06T09:43:07;98776.97;;;6.22;88.48
85524;BME280;75932;48.616;9.270;2024-03-06T09:45:33;98781.50;;;6.26;88.45
85524;BME280;75932;48.616;9.270;2024-03-06T09:47:58;98781.69;;;6.21;88.67
85524;BME280;75932;48.616;9.270;2024-03-06T09:50:24;98785.75;;;6.15;89.11
85524;BME280;75932;48.616;9.270;2024-03-06T09:52:52;98775.81;;;6.14;87.80
85524;BME280;75932;48.616;9.270;2024-03-06T09:55:19;98784.91;;;6.06;87.99
85524;BME280;75932;48.616;9.270;2024-03-06T09:57:45;98779.06;;;6.07;88.80
85524;BME280;75932;48.616;9.270;2024-03-06T10:00:11;98780.03;;;6.11;87.91
85524;BME280;75932;48.616;9.270;2024-03-06T10:02:48;98783.28;;;6.13;87.58
85524;BME280;75932;48.616;9.270;2024-03-06T10:05:21;98745.75;;;5.95;88.63
85524;BME280;75932;48.616;9.270;2024-03-06T10:07:47;98786.53;;;6.24;88.56
85524;BME280;75932;48.616;9.270;2024-03-06T10:10:12;98789.13;;;6.21;87.08
85524;BME280;75932;48.616;9.270;2024-03-06T10:12:41;98787.22;;;6.21;88.94
85524;BME280;75932;48.616;9.270;2024-03-06T10:15:10;98793.72;;;6.25;88.69
85524;BME280;75932;48.616;9.270;2024-03-06T10:17:37;98791.91;;;6.29;87.60
85524;BME280;75932;48.616;9.270;2024-03-06T10:20:20;98794.19;;;6.36;88.13
85524;BME280;75932;48.616;9.270;2024-03-06T10:22:50;98791.09;;;6.38;88.10
85524;BME280;75932;48.616;9.270;2024-03-06T10:25:18;98755.84;;;6.17;88.48
85524;BME280;75932;48.616;9.270;2024-03-06T10:27:44;98790.44;;;6.49;88.73
85524;BME280;75932;48.616;9.270;2024-03-06T10:30:09;98787.81;;;6.36;87.08
85524;BME280;75932;48.616;9.270;2024-03-06T10:32:38;98798.56;;;6.46;88.77
85524;BME280;75932;48.616;9.270;2024-03-06T10:35:04;98786.22;;;6.43;88.67
85524;BME280;75932;48.616;9.270;2024-03-06T10:37:31;98792.72;;;6.39;88.66
85524;BME280;75932;48.616;9.270;2024-03-06T10:40:02;98801.66;;;6.36;88.67
85524;BME280;75932;48.616;9.270;2024-03-06T10:42:31;98793.22;;;6.23;87.54
85524;BME280;75932;48.616;9.270;2024-03-06T10:44:59;98790.28;;;6.20;87.33
85524;BME280;75932;48.616;9.270;2024-03-06T10:47:26;98796.94;;;6.19;87.80
85524;BME280;75932;48.616;9.270;2024-03-06T10:49:54;98800.34;;;6.24;89.12
85524;BME280;75932;48.616;9.270;2024-03-06T10:52:21;98791.75;;;6.26;88.43
85524;BME280;75932;48.616;9.270;2024-03-06T10:54:48;98798.25;;;6.30;87.99
85524;BME280;75932;48.616;9.270;2024-03-06T10:57:14;98797.44;;;6.29;90.15
85524;BME280;75932;48.616;9.270;2024-03-06T10:59:40;98808.50;;;6.29;88.38
85524;BME280;75932;48.616;9.270;2024-03-06T11:02:08;98804.91;;;6.29;88.70
85524;BME280;75932;48.616;9.270;2024-03-06T11:04:34;98797.28;;;6.34;88.67
85524;BME280;75932;48.616;9.270;2024-03-06T11:07:03;98802.47;;;6.36;89.59
85524;BME280;75932;48.616;9.270;2024-03-06T11:09:35;98781.81;;;6.16;89.27
85524;BME280;75932;48.616;9.270;2024-03-06T11:12:01;98809.94;;;6.36;89.24
85524;BME280;75932;48.616;9.270;2024-03-06T11:14:28;98806.53;;;6.39;89.01
85524;BME280;75932;48.616;9.270;2024-03-06T11:17:06;98809.13;;;6.44;88.64
85524;BME280;75932;48.616;9.270;2024-03-06T11:28:10;98818.41;;;6.39;88.85
85524;BME280;75932;48.616;9.270;2024-03-06T11:31:08;98811.09;;;6.43;88.07
85524;BME280;75932;48.616;9.270;2024-03-06T11:39:07;98808.66;;;6.24;88.05
85524;BME280;75932;48.616;9.270;2024-03-06T11:41:47;98810.13;;;6.22;88.08
85524;BME280;75932;48.616;9.270;2024-03-06T11:44:15;98816.94;;;6.24;89.14
85524;BME280;75932;48.616;9.270;2024-03-06T11:49:24;98811.91;;;6.18;90.42
85524;BME280;75932;48.616;9.270;2024-03-06T11:51:54;98815.63;;;6.22;90.60
85524;BME280;75932;48.616;9.270;2024-03-06T11:54:20;98810.59;;;6.24;90.15
85524;BME280;75932;48.616;9.270;2024-03-06T11:56:50;98810.28;;;6.25;87.85
85524;BME280;75932;48.616;9.270;2024-03-06T11:59:37;98813.38;;;6.32;89.14
85524;BME280;75932;48.616;9.270;2024-03-06T12:02:05;98814.16;;;6.33;88.19
85524;BME280;75932;48.616;9.270;2024-03-06T12:04:32;98810.91;;;6.40;89.61
85524;BME280;75932;48.616;9.270;2024-03-06T12:07:03;98815.00;;;6.51;88.67
85524;BME280;75932;48.616;9.270;2024-03-06T12:09:36;98804.56;;;6.57;87.99
85524;BME280;75932;48.616;9.270;2024-03-06T12:12:02;98811.38;;;6.59;88.33
85524;BME280;75932;48.616;9.270;2024-03-06T12:14:29;98799.38;;;6.55;86.88
85524;BME280;75932;48.616;9.270;2024-03-06T12:16:57;98805.53;;;6.69;87.98
85524;BME280;75932;48.616;9.270;2024-03-06T12:19:25;98806.97;;;6.75;89.31
85524;BME280;75932;48.616;9.270;2024-03-06T12:21:50;98803.56;;;6.79;88.58
85524;BME280;75932;48.616;9.270;2024-03-06T12:24:16;98786.31;;;6.73;88.69
85524;BME280;75932;48.616;9.270;2024-03-06T12:26:44;98804.69;;;6.78;87.69
85524;BME280;75932;48.616;9.270;2024-03-06T12:29:11;98804.06;;;6.81;87.66
85524;BME280;75932;48.616;9.270;2024-03-06T12:31:38;98811.19;;;6.82;86.76
85524;BME280;75932;48.616;9.270;2024-03-06T12:34:06;98806.81;;;6.81;88.76
85524;BME280;75932;48.616;9.270;2024-03-06T12:36:32;98812.50;;;6.75;88.90
85524;BME280;75932;48.616;9.270;2024-03-06T12:39:03;98808.25;;;6.78;88.71
85524;BME280;75932;48.616;9.270;2024-03-06T12:41:28;98819.50;;;6.73;89.15
85524;BME280;75932;48.616;9.270;2024-03-06T12:43:55;98809.94;;;6.70;90.29
85524;BME280;75932;48.616;9.270;2024-03-06T12:46:24;98801.66;;;6.62;88.81
85524;BME280;75932;48.616;9.270;2024-03-06T12:48:50;98802.28;;;6.59;88.47
85524;BME280;75932;48.616;9.270;2024-03-06T12:51:16;98807.00;;;6.58;89.08
85524;BME280;75932;48.616;9.270;2024-03-06T12:53:41;98815.78;;;6.60;88.51
85524;BME280;75932;48.616;9.270;2024-03-06T12:56:07;98803.94;;;6.51;87.50
85524;BME280;75932;48.616;9.270;2024-03-06T12:58:32;98803.09;;;6.50;89.10
85524;BME280;75932;48.616;9.270;2024-03-06T13:01:00;98810.78;;;6.45;89.27
85524;BME280;75932;48.616;9.270;2024-03-06T13:03:26;98803.94;;;6.51;89.97
85524;BME280;75932;48.616;9.270;2024-03-06T13:05:51;98794.50;;;6.43;89.14
85524;BME280;75932;48.616;9.270;2024-03-06T13:08:17;98777.63;;;6.27;88.79
85524;BME280;75932;48.616;9.270;2024-03-06T13:10:42;98794.00;;;6.41;89.65
85524;BME280;75932;48.616;9.270;2024-03-06T13:13:08;98792.88;;;6.42;90.38
85524;BME280;75932;48.616;9.270;2024-03-06T13:15:34;98796.28;;;6.48;90.04
85524;BME280;75932;48.616;9.270;2024-03-06T13:18:00;98803.59;;;6.52;90.25
85524;BME280;75932;48.616;9.270;2024-03-06T13:20:29;98801.97;;;6.51;90.27
85524;BME280;75932;48.616;9.270;2024-03-06T13:22:54;98798.53;;;6.54;90.05